Time;durP1;ratioP1;P1;durP2;ratioP2;P2;SDS_P1;SDS_P2;PMS_P1;PMS_P2;Temp;Humidity;BMP_temperature;BMP_pressure;BME280_temperature;BME280_humidity;BME280_pressure;Samples;Min_cycle;Max_cycle;Signal;HPM_P1;HPM_P2
2023/05/23 00:00:38;;;;;;;27.95;25.45;;;16.00;94.00;;;;;;5115007;28;20170;-92
2023/05/23 00:03:03;;;;;;;28.52;24.38;;;16.00;94.00;;;;;;5113814;28;20185;-91
2023/05/23 00:05:29;;;;;;;26.92;24.73;;;16.00;94.00;;;;;;5114458;28;20253;-91
2023/05/23 00:07:55;;;;;;;25.60;23.23;;;16.00;94.10;;;;;;5115282;28;20162;-91
2023/05/23 00:10:21;;;;;;;28.50;26.10;;;15.90;94.10;;;;;;5114958;28;20178;-91
2023/05/23 00:12:46;;;;;;;33.45;30.02;;;15.90;94.20;;;;;;5113919;28;20255;-91
2023/05/23 00:15:12;;;;;;;37.33;34.28;;;15.90;94.20;;;;;;5113557;28;20177;-91
2023/05/23 00:17:38;;;;;;;39.80;36.30;;;15.90;94.20;;;;;;5113579;28;20188;-91
2023/05/23 00:20:14;;;;;;;41.42;38.10;;;15.80;94.30;;;;;;5113564;28;20178;-91
2023/05/23 00:22:41;;;;;;;41.60;37.40;;;15.90;94.30;;;;;;5114512;28;20259;-91
2023/05/23 00:25:08;;;;;;;31.90;28.92;;;15.90;94.40;;;;;;5113304;28;20170;-92
2023/05/23 00:27:34;;;;;;;34.03;30.90;;;15.90;94.40;;;;;;5113752;28;20194;-91
2023/05/23 00:29:59;;;;;;;33.58;30.65;;;15.90;94.40;;;;;;5113475;28;20224;-92
2023/05/23 00:32:26;;;;;;;34.00;30.98;;;15.90;94.50;;;;;;5114738;28;20699;-91
2023/05/23 00:34:53;;;;;;;34.15;31.08;;;15.90;94.50;;;;;;5114628;28;20202;-91
2023/05/23 00:37:21;;;;;;;34.85;31.52;;;15.90;94.60;;;;;;5114382;28;20636;-91
2023/05/23 00:39:47;;;;;;;34.53;31.13;;;15.80;94.60;;;;;;5113236;28;20223;-92
2023/05/23 00:42:13;;;;;;;32.95;29.75;;;15.90;94.70;;;;;;5112874;28;20205;-92
2023/05/23 00:44:38;;;;;;;34.47;31.20;;;15.90;94.70;;;;;;5114263;28;20183;-92
2023/05/23 00:47:06;;;;;;;35.67;32.45;;;15.90;94.70;;;;;;5113921;28;20209;-92
2023/05/23 00:49:32;;;;;;;35.22;31.83;;;15.90;94.80;;;;;;5113853;28;20647;-91
2023/05/23 00:51:59;;;;;;;37.88;34.28;;;15.90;94.80;;;;;;5114253;28;20323;-91
2023/05/23 00:54:30;;;;;;;37.80;34.20;;;15.90;94.80;;;;;;5114323;28;20181;-92
2023/05/23 00:56:56;;;;;;;36.88;33.50;;;15.90;94.80;;;;;;5113884;28;20161;-92
2023/05/23 00:59:23;;;;;;;38.15;34.10;;;15.90;94.90;;;;;;5113846;28;20174;-93
2023/05/23 01:01:51;;;;;;;38.85;35.30;;;15.90;94.90;;;;;;5114573;28;20201;-92
2023/05/23 01:04:19;;;;;;;41.50;37.50;;;15.90;94.90;;;;;;5114457;28;20243;-91
2023/05/23 01:06:47;;;;;;;42.53;38.45;;;15.90;94.90;;;;;;5112765;28;20178;-91
2023/05/23 01:09:15;;;;;;;49.38;44.55;;;15.80;95.00;;;;;;5112801;28;20591;-91
2023/05/23 01:12:11;;;;;;;53.08;47.92;;;15.60;95.00;;;;;;5112647;28;20194;-91
2023/05/23 01:15:05;;;;;;;63.38;56.78;;;15.40;95.00;;;;;;5113112;28;20619;-91
2023/05/23 01:17:43;;;;;;;68.22;61.13;;;15.30;95.10;;;;;;5105192;28;20190;-91
2023/05/23 01:20:15;;;;;;;75.03;66.90;;;15.20;95.20;;;;;;5112590;28;20158;-91
2023/05/23 01:22:59;;;;;;;67.95;60.63;;;15.00;95.20;;;;;;5112639;28;20679;-91
2023/05/23 01:25:49;;;;;;;78.63;70.28;;;14.90;95.20;;;;;;5112369;28;20186;-91
2023/05/23 01:28:21;;;;;;;79.05;65.03;;;14.90;95.20;;;;;;5112397;28;20181;-91
2023/05/23 01:30:50;;;;;;;81.60;68.77;;;14.70;95.30;;;;;;5113873;28;20174;-91
2023/05/23 01:33:19;;;;;;;81.73;71.33;;;14.70;95.30;;;;;;5113741;28;20174;-91
2023/05/23 01:35:45;;;;;;;86.38;69.55;;;14.70;95.30;;;;;;5113577;28;20174;-91
2023/05/23 01:38:10;;;;;;;90.10;69.57;;;14.50;95.30;;;;;;5112435;28;20196;-91
2023/05/23 01:40:37;;;;;;;92.13;68.80;;;14.60;95.40;;;;;;5112579;28;20174;-91
2023/05/23 01:43:02;;;;;;;98.83;68.27;;;14.40;95.30;;;;;;5112566;28;20177;-91
2023/05/23 01:45:28;;;;;;;101.03;68.30;;;14.30;95.30;;;;;;5112470;28;20678;-91
2023/05/23 01:47:55;;;;;;;93.80;66.30;;;14.30;95.40;;;;;;5113508;28;20272;-91
2023/05/23 01:50:22;;;;;;;99.67;69.07;;;14.30;95.30;;;;;;5112268;28;20222;-90
2023/05/23 01:52:49;;;;;;;103.60;72.50;;;14.30;95.30;;;;;;5112623;28;20201;-90
2023/05/23 01:55:21;;;;;;;105.22;71.78;;;14.30;95.30;;;;;;5112319;28;20651;-91
2023/05/23 01:57:50;;;;;;;108.93;71.13;;;14.30;95.30;;;;;;5112562;28;20261;-91
2023/05/23 02:00:16;;;;;;;108.47;73.93;;;14.30;95.20;;;;;;5114736;28;20663;-90
2023/05/23 02:02:42;;;;;;;96.63;71.17;;;14.20;95.10;;;;;;5117342;28;20202;-91
2023/05/23 02:05:09;;;;;;;99.67;65.17;;;14.30;95.20;;;;;;5116253;28;20185;-90
2023/05/23 02:07:34;;;;;;;97.10;64.43;;;14.40;95.20;;;;;;5116099;28;20655;-91
2023/05/23 02:10:00;;;;;;;100.15;62.92;;;14.40;95.10;;;;;;5117602;28;20170;-90
2023/05/23 02:12:25;;;;;;;89.10;62.87;;;14.30;95.00;;;;;;5115955;28;20201;-91
2023/05/23 02:14:53;;;;;;;93.93;62.03;;;14.20;95.00;;;;;;5117469;28;20178;-90
2023/05/23 02:17:20;;;;;;;100.60;61.93;;;14.30;95.10;;;;;;5115960;28;20182;-90
2023/05/23 02:19:46;;;;;;;88.87;60.20;;;14.30;95.00;;;;;;5116067;28;20213;-90
2023/05/23 02:22:12;;;;;;;90.37;62.73;;;14.20;95.00;;;;;;5117167;28;20232;-90
2023/05/23 02:24:38;;;;;;;96.33;63.60;;;14.20;95.00;;;;;;5116874;28;20170;-90
2023/05/23 02:27:03;;;;;;;96.57;63.50;;;14.20;95.00;;;;;;5117083;28;20522;-90
2023/05/23 02:29:29;;;;;;;93.53;63.30;;;14.20;95.10;;;;;;5116071;28;20173;-90
2023/05/23 02:31:55;;;;;;;96.03;61.77;;;14.20;95.10;;;;;;5115544;28;20621;-90
2023/05/23 02:34:20;;;;;;;93.10;60.10;;;14.20;95.00;;;;;;5115647;28;20177;-91
2023/05/23 02:36:46;;;;;;;104.57;61.77;;;14.10;95.10;;;;;;5115543;28;20178;-90
2023/05/23 02:39:11;;;;;;;105.20;62.17;;;14.10;95.10;;;;;;5115515;28;20671;-91
2023/05/23 02:41:37;;;;;;;98.90;60.70;;;14.10;95.10;;;;;;5116786;28;20258;-91
2023/05/23 02:44:03;;;;;;;94.73;58.97;;;14.10;95.10;;;;;;5115507;28;20170;-90
2023/05/23 02:46:28;;;;;;;103.33;60.57;;;14.10;95.20;;;;;;5116897;28;20174;-91
2023/05/23 02:48:54;;;;;;;97.50;61.07;;;14.20;95.20;;;;;;5115360;28;20170;-90
2023/05/23 02:51:20;;;;;;;95.97;58.57;;;14.10;95.20;;;;;;5116779;28;20667;-90
2023/05/23 02:53:45;;;;;;;112.00;60.53;;;14.10;95.10;;;;;;5115278;28;20174;-90
2023/05/23 02:56:12;;;;;;;105.47;60.53;;;14.10;95.10;;;;;;5116453;28;20647;-90
2023/05/23 02:58:38;;;;;;;94.47;61.20;;;14.10;95.10;;;;;;5115053;28;20206;-90
2023/05/23 03:01:04;;;;;;;96.33;59.23;;;14.10;95.10;;;;;;5115026;28;20205;-90
2023/05/23 03:03:30;;;;;;;95.70;57.33;;;14.20;95.10;;;;;;5116542;28;20166;-90
2023/05/23 03:05:57;;;;;;;97.10;59.87;;;14.20;95.10;;;;;;5114986;28;20176;-90
2023/05/23 03:08:23;;;;;;;87.57;56.10;;;14.20;95.00;;;;;;5114993;28;20208;-90
2023/05/23 03:10:48;;;;;;;98.50;58.37;;;14.20;95.00;;;;;;5114871;28;20202;-90
2023/05/23 03:13:14;;;;;;;85.80;55.60;;;14.10;94.90;;;;;;5114925;28;20201;-90
2023/05/23 03:15:39;;;;;;;99.23;57.93;;;14.20;95.00;;;;;;5116359;28;20166;-90
2023/05/23 03:18:05;;;;;;;95.50;57.67;;;14.10;94.90;;;;;;5115105;28;20667;-90
2023/05/23 03:20:30;;;;;;;102.67;60.27;;;14.20;94.90;;;;;;5114810;28;20174;-90
2023/05/23 03:22:56;;;;;;;100.17;57.87;;;14.10;94.90;;;;;;5114463;28;20205;-90
2023/05/23 03:25:21;;;;;;;91.83;54.10;;;14.10;94.80;;;;;;5114505;28;20182;-90
2023/05/23 03:27:47;;;;;;;96.63;58.00;;;14.00;94.80;;;;;;5115063;28;20170;-90
2023/05/23 03:30:12;;;;;;;88.67;60.10;;;14.00;94.70;;;;;;5115157;28;20265;-90
2023/05/23 03:32:38;;;;;;;85.80;58.03;;;13.90;94.70;;;;;;5114444;28;20198;-90
2023/05/23 03:35:04;;;;;;;96.90;61.93;;;14.00;94.70;;;;;;5114507;28;20272;-90
2023/05/23 03:37:29;;;;;;;98.37;61.43;;;14.00;94.70;;;;;;5114459;28;20207;-90
2023/05/23 03:39:55;;;;;;;94.67;59.67;;;13.90;94.60;;;;;;5115748;28;20226;-90
2023/05/23 03:42:20;;;;;;;90.10;54.53;;;13.90;94.70;;;;;;5114132;28;20201;-90
2023/05/23 03:44:46;;;;;;;93.67;54.10;;;14.00;94.70;;;;;;5114287;28;20538;-91
2023/05/23 03:47:11;;;;;;;87.70;55.30;;;13.90;94.70;;;;;;5114290;28;20708;-90
2023/05/23 03:49:37;;;;;;;85.37;53.33;;;13.80;94.70;;;;;;5114183;28;20216;-90
2023/05/23 03:52:03;;;;;;;91.63;55.07;;;13.90;94.80;;;;;;5113990;28;20641;-90
2023/05/23 03:54:28;;;;;;;90.90;56.20;;;13.80;94.90;;;;;;5114106;28;20236;-90
2023/05/23 03:56:54;;;;;;;92.70;53.77;;;13.80;95.00;;;;;;5114054;28;20189;-90
2023/05/23 03:59:19;;;;;;;99.37;56.63;;;13.80;95.00;;;;;;5114321;28;20174;-90
2023/05/23 04:01:45;;;;;;;94.40;57.50;;;13.80;95.10;;;;;;5113906;28;20557;-90
2023/05/23 04:04:10;;;;;;;104.73;58.97;;;13.80;95.10;;;;;;5113963;28;20174;-90
2023/05/23 04:06:37;;;;;;;103.53;59.87;;;13.80;95.10;;;;;;5114994;27;20167;-89
2023/05/23 04:09:02;;;;;;;99.60;59.73;;;13.80;95.10;;;;;;5113765;28;20609;-90
2023/05/23 04:11:30;;;;;;;104.27;59.53;;;13.90;95.10;;;;;;5113716;28;20632;-90
2023/05/23 04:13:55;;;;;;;94.60;58.87;;;14.00;95.10;;;;;;5113785;28;20174;-89
2023/05/23 04:16:21;;;;;;;116.40;59.53;;;14.00;95.10;;;;;;5113641;28;20181;-90
2023/05/23 04:18:47;;;;;;;102.53;60.70;;;13.90;95.10;;;;;;5113522;28;20647;-90
2023/05/23 04:21:12;;;;;;;102.90;60.03;;;14.00;95.10;;;;;;5114861;28;20637;-90
2023/05/23 04:23:38;;;;;;;103.93;58.67;;;14.00;95.10;;;;;;5112777;28;20584;-90
2023/05/23 04:26:06;;;;;;;118.77;64.00;;;13.90;95.00;;;;;;5113274;28;20664;-90
2023/05/23 04:28:33;;;;;;;99.47;60.83;;;13.90;95.10;;;;;;5113377;28;20170;-90
2023/05/23 04:30:58;;;;;;;111.37;62.67;;;13.90;95.10;;;;;;5113223;28;20209;-89
2023/05/23 04:33:27;;;;;;;113.10;64.30;;;13.90;95.10;;;;;;5113438;28;20182;-90
2023/05/23 04:35:52;;;;;;;136.53;68.30;;;14.00;95.10;;;;;;5114511;28;20544;-90
2023/05/23 04:38:18;;;;;;;121.53;66.23;;;14.00;95.00;;;;;;5113162;28;20184;-90
2023/05/23 04:40:43;;;;;;;135.63;67.10;;;13.90;95.10;;;;;;5113053;28;20177;-90
2023/05/23 04:43:09;;;;;;;131.27;70.60;;;13.90;95.10;;;;;;5113147;28;20167;-89
2023/05/23 04:45:35;;;;;;;134.80;71.13;;;13.80;95.20;;;;;;5113052;28;20171;-90
2023/05/23 04:48:02;;;;;;;126.83;72.87;;;13.80;95.30;;;;;;5113941;28;20174;-90
2023/05/23 04:50:31;;;;;;;133.77;72.20;;;13.90;95.30;;;;;;5114229;28;20170;-90
2023/05/23 04:52:57;;;;;;;122.77;69.00;;;13.90;95.30;;;;;;5113027;28;20204;-90
2023/05/23 04:55:22;;;;;;;120.73;68.90;;;14.00;95.40;;;;;;5112954;28;20174;-90
2023/05/23 04:57:48;;;;;;;135.37;70.27;;;14.00;95.40;;;;;;5112986;28;20177;-90
2023/05/23 05:00:14;;;;;;;152.10;73.80;;;14.00;95.40;;;;;;5114105;28;20584;-90
2023/05/23 05:02:40;;;;;;;149.53;79.37;;;14.00;95.40;;;;;;5112577;28;20237;-90
2023/05/23 05:05:06;;;;;;;151.20;78.10;;;14.00;95.40;;;;;;5112736;28;20166;-90
2023/05/23 05:07:34;;;;;;;134.60;75.17;;;14.00;95.40;;;;;;5114026;28;20230;-90
2023/05/23 05:10:00;;;;;;;148.50;76.37;;;14.00;95.40;;;;;;5113565;28;20162;-89
2023/05/23 05:12:25;;;;;;;135.93;76.60;;;14.10;95.40;;;;;;5114111;28;20258;-90
2023/05/23 05:14:51;;;;;;;132.40;69.23;;;14.20;95.50;;;;;;5113924;28;20274;-90
2023/05/23 05:17:18;;;;;;;131.48;65.72;;;14.20;95.40;;;;;;5112606;28;20170;-90
2023/05/23 05:19:44;;;;;;;123.70;66.13;;;14.20;95.40;;;;;;5113429;28;20181;-89
2023/05/23 05:22:09;;;;;;;141.50;71.13;;;14.20;95.30;;;;;;5113719;28;20205;-88
2023/05/23 05:24:35;;;;;;;147.10;71.97;;;14.10;95.40;;;;;;5113820;28;20177;-88
2023/05/23 05:27:01;;;;;;;153.77;72.43;;;14.20;95.40;;;;;;5112412;28;20185;-89
2023/05/23 05:29:26;;;;;;;153.80;74.17;;;14.20;95.40;;;;;;5112425;28;20166;-90
2023/05/23 05:31:52;;;;;;;139.07;70.70;;;14.20;95.40;;;;;;5112414;28;20710;-89
2023/05/23 05:34:18;;;;;;;129.33;70.97;;;14.20;95.40;;;;;;5117035;28;20178;-89
2023/05/23 05:36:46;;;;;;;111.25;66.57;;;14.30;95.40;;;;;;5120706;27;20174;-89
2023/05/23 05:39:13;;;;;;;95.57;60.33;;;14.30;95.40;;;;;;5119249;28;20678;-91
2023/05/23 05:41:39;;;;;;;102.38;60.25;;;14.30;95.30;;;;;;5119066;28;20288;-91
2023/05/23 05:44:05;;;;;;;84.05;56.03;;;14.30;95.30;;;;;;5119323;28;20250;-90
2023/05/23 05:46:31;;;;;;;85.87;55.27;;;14.30;95.30;;;;;;5120402;27;20174;-91
2023/05/23 05:48:56;;;;;;;68.22;49.35;;;14.30;95.30;;;;;;5119584;28;20548;-91
2023/05/23 05:51:22;;;;;;;59.10;45.80;;;14.30;95.30;;;;;;5119088;28;20674;-91
2023/05/23 05:53:48;;;;;;;58.95;46.20;;;14.30;95.20;;;;;;5120264;27;20173;-90
2023/05/23 05:56:14;;;;;;;48.95;40.05;;;14.30;95.20;;;;;;5120216;28;20173;-90
2023/05/23 05:58:40;;;;;;;47.25;41.60;;;14.30;95.20;;;;;;5120636;27;20222;-90
2023/05/23 06:01:05;;;;;;;46.35;37.60;;;14.30;95.10;;;;;;5118907;28;20613;-90
2023/05/23 06:03:32;;;;;;;41.58;36.65;;;14.30;95.10;;;;;;5119054;28;20169;-90
2023/05/23 06:05:58;;;;;;;39.75;35.45;;;14.40;95.10;;;;;;5119411;28;20607;-90
2023/05/23 06:08:23;;;;;;;37.63;33.70;;;14.40;95.10;;;;;;5118975;28;20197;-90
2023/05/23 06:10:49;;;;;;;35.92;32.08;;;14.40;95.00;;;;;;5118826;28;20599;-90
2023/05/23 06:13:15;;;;;;;33.78;28.42;;;14.30;95.00;;;;;;5119194;28;20169;-90
2023/05/23 06:15:40;;;;;;;32.58;25.75;;;14.30;94.90;;;;;;5120172;27;20170;-91
2023/05/23 06:18:06;;;;;;;35.85;26.05;;;14.30;94.80;;;;;;5120047;27;20169;-90
2023/05/23 06:20:31;;;;;;;27.77;23.35;;;14.30;94.70;;;;;;5119320;28;20181;-90
2023/05/23 06:22:58;;;;;;;24.97;22.40;;;14.30;94.60;;;;;;5119703;28;20201;-91
2023/05/23 06:25:24;;;;;;;25.10;20.77;;;14.20;94.40;;;;;;5119041;28;20554;-90
2023/05/23 06:27:49;;;;;;;22.45;20.08;;;14.20;94.20;;;;;;5120129;27;20245;-91
2023/05/23 06:30:15;;;;;;;21.55;19.42;;;14.10;94.00;;;;;;5120037;27;20197;-90
2023/05/23 06:32:41;;;;;;;28.20;25.37;;;14.20;93.80;;;;;;5119898;27;20277;-90
2023/05/23 06:35:06;;;;;;;27.77;25.23;;;14.20;93.70;;;;;;5119987;27;20209;-90
2023/05/23 06:37:33;;;;;;;28.73;26.13;;;14.20;93.50;;;;;;5119198;28;20185;-90
2023/05/23 06:39:58;;;;;;;28.67;25.87;;;14.10;93.40;;;;;;5119103;28;20546;-90
2023/05/23 06:42:24;;;;;;;28.67;25.33;;;14.10;93.40;;;;;;5118415;28;20231;-90
2023/05/23 06:44:49;;;;;;;21.77;19.60;;;14.10;93.50;;;;;;5118327;28;20513;-91
2023/05/23 06:47:15;;;;;;;21.80;19.52;;;14.10;93.50;;;;;;5116675;28;20221;-90
2023/05/23 06:49:42;;;;;;;21.57;19.30;;;14.10;93.50;;;;;;5116802;28;20545;-91
2023/05/23 06:52:07;;;;;;;22.30;19.40;;;14.10;93.40;;;;;;5116499;28;20660;-90
2023/05/23 06:54:33;;;;;;;21.83;19.43;;;14.10;93.50;;;;;;5115315;28;20178;-91
2023/05/23 06:56:58;;;;;;;20.60;18.13;;;14.20;93.40;;;;;;5116871;27;20334;-91
2023/05/23 06:59:24;;;;;;;23.73;19.90;;;14.20;93.30;;;;;;5117037;27;20609;-91
2023/05/23 07:01:50;;;;;;;21.30;18.70;;;14.20;93.30;;;;;;5116706;28;20249;-92
2023/05/23 07:04:15;;;;;;;18.87;16.90;;;14.20;93.30;;;;;;5116510;28;20166;-90
2023/05/23 07:06:41;;;;;;;20.10;17.13;;;14.20;93.10;;;;;;5116322;28;20264;-91
2023/05/23 07:09:06;;;;;;;19.17;17.37;;;14.30;93.00;;;;;;5116737;28;20181;-91
2023/05/23 07:11:32;;;;;;;19.47;17.07;;;14.30;93.00;;;;;;5116321;28;20204;-91
2023/05/23 07:13:58;;;;;;;23.20;17.70;;;14.20;92.70;;;;;;5116570;28;20177;-90
2023/05/23 07:16:23;;;;;;;18.07;16.37;;;14.30;92.50;;;;;;5116909;28;20166;-91
2023/05/23 07:18:49;;;;;;;18.80;16.83;;;14.20;92.20;;;;;;5116673;28;20663;-91
2023/05/23 07:21:15;;;;;;;17.43;15.87;;;14.20;92.10;;;;;;5114710;28;20647;-91
2023/05/23 07:23:40;;;;;;;17.60;15.90;;;14.20;92.10;;;;;;5116806;28;20174;-90
2023/05/23 07:26:08;;;;;;;19.10;16.00;;;14.20;92.10;;;;;;5116411;28;20194;-91
2023/05/23 07:28:34;;;;;;;18.00;16.23;;;14.30;92.10;;;;;;5116921;28;20677;-91
2023/05/23 07:31:00;;;;;;;17.80;16.15;;;14.30;92.10;;;;;;5115740;28;20272;-90
2023/05/23 07:33:25;;;;;;;18.63;16.97;;;14.20;92.00;;;;;;5115778;28;20166;-90
2023/05/23 07:35:51;;;;;;;20.13;17.98;;;14.20;92.10;;;;;;5115080;28;20174;-90
2023/05/23 07:38:16;;;;;;;24.90;22.03;;;14.20;92.10;;;;;;5114815;28;20174;-90
2023/05/23 07:40:42;;;;;;;25.17;21.03;;;14.20;92.30;;;;;;5115625;28;20170;-90
2023/05/23 07:43:07;;;;;;;21.23;19.03;;;14.10;92.40;;;;;;5114337;28;20202;-90
2023/05/23 07:45:33;;;;;;;21.37;19.07;;;14.00;92.60;;;;;;5115583;28;20174;-89
2023/05/23 07:47:58;;;;;;;24.53;20.40;;;14.00;92.60;;;;;;5115528;28;20170;-90
2023/05/23 07:50:26;;;;;;;22.00;19.07;;;13.90;92.70;;;;;;5114368;28;20174;-90
2023/05/23 07:52:52;;;;;;;19.63;17.60;;;13.80;92.80;;;;;;5114601;28;20194;-89
2023/05/23 07:55:17;;;;;;;20.00;17.30;;;13.90;92.80;;;;;;5114215;28;20184;-89
2023/05/23 07:57:43;;;;;;;19.77;17.60;;;13.70;92.80;;;;;;5114182;28;20178;-88
2023/05/23 08:00:09;;;;;;;27.57;18.10;;;13.70;92.80;;;;;;5115585;28;20182;-88
2023/05/23 08:02:35;;;;;;;21.07;18.20;;;13.60;92.70;;;;;;5113865;28;20241;-87
2023/05/23 08:05:00;;;;;;;21.83;17.63;;;13.50;92.70;;;;;;5115314;27;20205;-89
2023/05/23 08:07:26;;;;;;;21.87;17.93;;;13.50;92.80;;;;;;5115103;28;20166;-88
2023/05/23 08:09:51;;;;;;;25.57;19.20;;;13.50;92.70;;;;;;5113872;28;20170;-88
2023/05/23 08:12:17;;;;;;;25.43;20.50;;;13.40;92.60;;;;;;5113900;28;20229;-88
2023/05/23 08:14:42;;;;;;;21.40;18.37;;;13.40;92.60;;;;;;5113796;28;20184;-87
2023/05/23 08:17:09;;;;;;;22.40;18.53;;;13.30;92.60;;;;;;5113986;28;20261;-88
2023/05/23 08:19:35;;;;;;;26.13;18.50;;;13.30;92.70;;;;;;5113933;28;20185;-88
2023/05/23 08:22:00;;;;;;;21.33;18.00;;;13.20;92.60;;;;;;5113556;28;20210;-88
2023/05/23 08:24:26;;;;;;;22.90;17.17;;;13.20;92.60;;;;;;5113686;28;20261;-88
2023/05/23 08:26:51;;;;;;;18.67;15.87;;;13.30;92.70;;;;;;5113780;28;20213;-88
2023/05/23 08:29:17;;;;;;;20.03;16.90;;;13.20;92.50;;;;;;5113731;28;20170;-88
2023/05/23 08:31:43;;;;;;;20.73;17.67;;;13.20;92.50;;;;;;5113585;28;20243;-88
2023/05/23 08:34:08;;;;;;;23.10;16.40;;;13.10;92.30;;;;;;5113537;28;20174;-88
2023/05/23 08:36:35;;;;;;;28.23;21.87;;;13.10;92.30;;;;;;5113622;28;20181;-87
2023/05/23 08:39:01;;;;;;;24.13;20.63;;;13.00;92.30;;;;;;5114943;28;20174;-88
2023/05/23 08:41:28;;;;;;;21.77;16.17;;;13.00;92.20;;;;;;5113171;28;20202;-87
2023/05/23 08:43:53;;;;;;;17.70;12.33;;;12.90;92.20;;;;;;5113233;28;20268;-86
2023/05/23 08:46:21;;;;;;;19.23;11.80;;;12.80;92.20;;;;;;5114342;28;20212;-86
2023/05/23 08:48:50;;;;;;;19.53;11.10;;;12.80;92.30;;;;;;5113050;28;20178;-86
2023/05/23 08:51:16;;;;;;;19.40;11.07;;;12.80;92.30;;;;;;5114280;28;20568;-87
2023/05/23 08:53:47;;;;;;;19.80;10.73;;;12.80;92.10;;;;;;5114225;28;20178;-87
2023/05/23 08:56:13;;;;;;;16.03;11.10;;;12.70;91.80;;;;;;5112983;28;20310;-89
2023/05/23 08:58:43;;;;;;;12.83;9.13;;;12.80;91.90;;;;;;5112850;28;20562;-89
2023/05/23 09:01:09;;;;;;;11.70;8.83;;;12.70;91.70;;;;;;5114276;28;20198;-87
2023/05/23 09:03:39;;;;;;;16.93;8.90;;;12.70;91.70;;;;;;5112778;28;20547;-87
2023/05/23 09:06:08;;;;;;;12.93;9.17;;;12.70;91.50;;;;;;5114001;28;20295;-87
2023/05/23 09:08:35;;;;;;;9.27;8.13;;;12.80;91.20;;;;;;5112849;28;20170;-88
2023/05/23 09:11:05;;;;;;;12.33;8.83;;;12.80;91.20;;;;;;5112725;28;20285;-89
2023/05/23 09:13:33;;;;;;;14.40;10.47;;;12.80;91.20;;;;;;5112719;28;20184;-88
2023/05/23 09:16:02;;;;;;;15.97;10.80;;;12.80;91.10;;;;;;5112655;28;20178;-88
2023/05/23 09:18:41;;;;;;;15.30;9.70;;;12.80;91.00;;;;;;5113232;28;20684;-89
2023/05/23 09:21:08;;;;;;;16.07;8.73;;;12.80;90.90;;;;;;5113326;28;20186;-91
2023/05/23 09:23:39;;;;;;;15.57;9.43;;;12.80;90.60;;;;;;5112544;28;20595;-89
2023/05/23 09:26:10;;;;;;;12.03;8.60;;;12.70;90.40;;;;;;5112338;28;20192;-85
2023/05/23 09:28:38;;;;;;;15.83;8.77;;;12.70;90.30;;;;;;5113734;28;20157;-85
2023/05/23 09:31:07;;;;;;;15.60;8.77;;;12.70;90.20;;;;;;5112426;28;20194;-87
2023/05/23 09:33:44;;;;;;;14.30;8.17;;;12.70;89.90;;;;;;5112524;28;20209;-87
2023/05/23 09:36:10;;;;;;;16.40;9.17;;;12.80;89.70;;;;;;5112468;28;20173;-87
2023/05/23 09:38:39;;;;;;;17.30;9.27;;;13.00;89.80;;;;;;5113592;28;20166;-87
2023/05/23 09:41:06;;;;;;;20.20;9.90;;;12.90;89.00;;;;;;5112232;28;20190;-88
2023/05/23 09:43:31;;;;;;;14.17;9.30;;;13.10;88.90;;;;;;5112333;28;20165;-89
2023/05/23 09:46:07;;;;;;;16.03;10.77;;;13.10;88.80;;;;;;5112335;28;20176;-89
2023/05/23 09:48:32;;;;;;;13.23;10.77;;;13.00;88.70;;;;;;5112445;28;20161;-88
2023/05/23 09:50:58;;;;;;;18.17;10.90;;;12.90;88.30;;;;;;5112342;28;20197;-86
2023/05/23 09:53:24;;;;;;;21.03;10.60;;;12.80;87.80;;;;;;5113588;28;20166;-86
2023/05/23 09:55:54;;;;;;;20.20;9.40;;;12.80;87.70;;;;;;5112332;28;20640;-88
2023/05/23 09:58:22;;;;;;;16.30;9.97;;;12.70;87.10;;;;;;5112299;28;20174;-88
2023/05/23 10:00:53;;;;;;;22.27;11.80;;;12.80;87.30;;;;;;5112295;28;20201;-87
2023/05/23 10:03:23;;;;;;;22.67;12.87;;;12.90;87.30;;;;;;5112239;28;20174;-87
2023/05/23 10:05:52;;;;;;;18.57;14.57;;;12.80;87.10;;;;;;5112348;28;20163;-86
2023/05/23 10:08:35;;;;;;;21.17;14.97;;;12.90;87.00;;;;;;5112110;28;20170;-86
2023/05/23 10:11:12;;;;;;;22.80;12.87;;;13.00;87.20;;;;;;5112113;28;20605;-86
2023/05/23 10:13:42;;;;;;;17.43;12.63;;;13.00;86.70;;;;;;5113751;28;20165;-86
2023/05/23 10:16:13;;;;;;;20.03;12.17;;;13.00;86.50;;;;;;5113303;28;20166;-87
2023/05/23 10:18:43;;;;;;;19.07;11.07;;;13.00;86.30;;;;;;5112134;28;20162;-86
2023/05/23 10:21:11;;;;;;;18.77;11.10;;;13.00;86.00;;;;;;5115206;28;20264;-86
2023/05/23 10:23:38;;;;;;;21.73;10.87;;;13.00;86.00;;;;;;5117202;28;20188;-89
2023/05/23 10:26:04;;;;;;;21.17;11.57;;;12.90;85.30;;;;;;5115786;28;20247;-86
2023/05/23 10:28:31;;;;;;;17.53;11.07;;;13.10;85.20;;;;;;5115805;28;20177;-86
2023/05/23 10:30:58;;;;;;;24.03;11.50;;;13.00;84.10;;;;;;5115694;28;20201;-86
2023/05/23 10:33:25;;;;;;;22.90;11.30;;;13.20;84.30;;;;;;5116962;28;20221;-88
2023/05/23 10:36:12;;;;;;;17.13;10.27;;;13.40;84.20;;;;;;5115640;28;20177;-86
2023/05/23 10:38:45;;;;;;;18.33;9.23;;;13.60;83.50;;;;;;5116802;28;20647;-88
2023/05/23 10:41:25;;;;;;;20.13;10.60;;;13.60;83.30;;;;;;5117005;27;20273;-88
2023/05/23 10:44:04;;;;;;;26.27;12.20;;;13.70;83.30;;;;;;5115710;28;20166;-86
2023/05/23 10:46:50;;;;;;;17.83;10.13;;;13.70;82.00;;;;;;5115485;28;20310;-86
2023/05/23 10:49:16;;;;;;;18.77;9.33;;;13.90;82.00;;;;;;5116702;28;20166;-86
2023/05/23 10:51:41;;;;;;;22.30;11.20;;;14.00;81.30;;;;;;5116799;28;20667;-86
2023/05/23 10:54:11;;;;;;;22.17;11.83;;;14.00;80.70;;;;;;5116681;28;20181;-86
2023/05/23 10:56:36;;;;;;;21.90;11.83;;;14.00;79.70;;;;;;5115419;28;20591;-86
2023/05/23 10:59:05;;;;;;;21.13;11.27;;;13.90;78.70;;;;;;5116940;28;20178;-86
2023/05/23 11:01:31;;;;;;;20.73;10.40;;;14.20;79.30;;;;;;5115085;28;20232;-87
2023/05/23 11:04:03;;;;;;;18.47;11.37;;;14.50;79.20;;;;;;5115049;28;20197;-86
2023/05/23 11:06:43;;;;;;;20.40;13.27;;;14.30;76.20;;;;;;5115191;28;20166;-87
2023/05/23 11:09:11;;;;;;;17.20;12.13;;;14.40;76.00;;;;;;5115042;28;20663;-86
2023/05/23 11:11:59;;;;;;;23.13;12.20;;;14.40;75.40;;;;;;5114965;28;20207;-87
2023/05/23 11:14:34;;;;;;;21.70;12.60;;;14.30;75.20;;;;;;5114930;28;20227;-87
2023/05/23 11:17:14;;;;;;;25.47;13.57;;;14.40;76.70;;;;;;5116112;28;20173;-87
2023/05/23 11:19:55;;;;;;;23.73;13.70;;;14.20;76.20;;;;;;5114881;28;20624;-86
2023/05/23 11:22:26;;;;;;;24.03;12.00;;;14.20;75.70;;;;;;5114645;28;20209;-87
2023/05/23 11:24:55;;;;;;;23.63;14.07;;;14.20;75.80;;;;;;5114872;28;20170;-87
2023/05/23 11:27:34;;;;;;;20.73;13.23;;;14.20;75.60;;;;;;5114615;28;20190;-87
2023/05/23 11:30:14;;;;;;;19.20;13.20;;;14.50;75.40;;;;;;5115876;28;20166;-87
2023/05/23 11:32:41;;;;;;;18.90;13.17;;;14.70;74.40;;;;;;5114630;28;20678;-86
2023/05/23 11:35:10;;;;;;;19.77;13.30;;;14.90;73.80;;;;;;5114594;28;20264;-86
2023/05/23 11:37:39;;;;;;;24.10;12.73;;;14.80;73.00;;;;;;5114533;28;20216;-87
2023/05/23 11:40:34;;;;;;;23.27;13.93;;;14.60;74.00;;;;;;5114441;28;20253;-86
2023/05/23 11:43:02;;;;;;;25.67;15.23;;;14.80;74.10;;;;;;5114417;28;20255;-87
2023/05/23 11:45:30;;;;;;;22.77;13.37;;;14.80;72.60;;;;;;5114298;28;20174;-86
2023/05/23 11:47:56;;;;;;;23.88;13.40;;;14.90;72.90;;;;;;5115840;28;20689;-86
2023/05/23 11:50:23;;;;;;;17.50;12.45;;;15.00;72.70;;;;;;5114255;28;20178;-87
2023/05/23 11:52:52;;;;;;;19.70;13.73;;;15.30;73.00;;;;;;5115320;28;20657;-86
2023/05/23 11:55:21;;;;;;;22.33;13.70;;;15.20;71.80;;;;;;5116064;28;20166;-86
2023/05/23 11:57:47;;;;;;;16.75;13.57;;;15.10;72.50;;;;;;5114141;28;20235;-86
2023/05/23 12:00:14;;;;;;;23.27;14.75;;;15.10;71.90;;;;;;5115252;28;20210;-86
2023/05/23 12:02:43;;;;;;;18.95;13.55;;;15.20;71.30;;;;;;5115179;28;20202;-87
2023/05/23 12:05:12;;;;;;;19.73;15.13;;;15.20;70.50;;;;;;5114089;28;20174;-86
2023/05/23 12:07:42;;;;;;;25.23;14.20;;;15.20;70.50;;;;;;5115354;28;20163;-86
2023/05/23 12:10:09;;;;;;;26.05;15.88;;;15.20;70.40;;;;;;5115273;28;20215;-86
2023/05/23 12:12:35;;;;;;;25.33;14.65;;;15.20;70.20;;;;;;5113978;28;20202;-86
2023/05/23 12:15:01;;;;;;;28.10;14.48;;;15.10;69.50;;;;;;5113964;28;20707;-87
2023/05/23 12:17:27;;;;;;;25.35;14.60;;;15.20;71.00;;;;;;5115023;28;20256;-86
2023/05/23 12:19:53;;;;;;;24.25;14.82;;;15.00;71.60;;;;;;5114923;28;20260;-86
2023/05/23 12:22:25;;;;;;;26.42;21.73;;;14.90;70.20;;;;;;5113544;28;20206;-86
2023/05/23 12:24:55;;;;;;;25.30;22.73;;;15.00;69.70;;;;;;5113516;28;20552;-87
2023/05/23 12:27:28;;;;;;;29.67;24.05;;;15.30;67.50;;;;;;5114106;28;20277;-86